Time;durP1;ratioP1;P1;durP2;ratioP2;P2;SDS_P1;SDS_P2;PMS_P1;PMS_P2;Temp;Humidity;BMP_temperature;BMP_pressure;BME280_temperature;BME280_humidity;BME280_pressure;Samples;Min_cycle;Max_cycle;Signal;HPM_P1;HPM_P2
2023/09/04 04:01:28;;;;;;;2.47;1.40;;;18.60;80.80;;;;;;5506820;23;20575;-78
2023/09/04 04:03:54;;;;;;;2.10;1.50;;;18.50;80.80;;;;;;4936795;29;20479;-78
2023/09/04 04:06:22;;;;;;;2.30;1.67;;;18.50;81.10;;;;;;4937176;29;20502;-78
2023/09/04 04:08:50;;;;;;;2.70;1.80;;;18.50;81.30;;;;;;4937174;29;20448;-78
2023/09/04 04:11:19;;;;;;;2.27;1.77;;;18.50;81.10;;;;;;4936745;29;20495;-78
2023/09/04 04:13:46;;;;;;;3.20;2.30;;;18.40;81.10;;;;;;4936943;29;20459;-78
2023/09/04 04:16:13;;;;;;;3.10;2.13;;;18.40;81.10;;;;;;4937459;29;20456;-78
2023/09/04 04:18:41;;;;;;;2.20;1.53;;;18.40;81.30;;;;;;4936974;29;20499;-78
2023/09/04 04:21:08;;;;;;;2.40;1.90;;;18.40;81.30;;;;;;4936793;29;20495;-78
2023/09/04 04:23:35;;;;;;;2.20;1.53;;;18.50;81.30;;;;;;4940751;29;20511;-77
2023/09/04 04:26:03;;;;;;;2.63;1.53;;;18.40;81.00;;;;;;4942268;29;20880;-77
2023/09/04 04:28:29;;;;;;;3.40;1.50;;;18.30;81.70;;;;;;4941356;29;20471;-78
2023/09/04 04:30:57;;;;;;;2.80;2.00;;;18.40;81.50;;;;;;4942182;29;20801;-78
2023/09/04 04:33:24;;;;;;;2.57;1.70;;;18.40;81.30;;;;;;4942316;29;20448;-77
2023/09/04 04:35:54;;;;;;;2.10;1.67;;;18.40;81.30;;;;;;4942654;29;20534;-77
2023/09/04 04:38:20;;;;;;;2.07;1.63;;;18.30;81.30;;;;;;4943543;29;20460;-78
2023/09/04 04:40:47;;;;;;;4.00;2.37;;;18.30;81.50;;;;;;4942444;29;20488;-77
2023/09/04 04:43:14;;;;;;;2.40;1.80;;;18.30;81.60;;;;;;4942427;29;20872;-78
2023/09/04 04:45:40;;;;;;;2.13;1.77;;;18.30;81.50;;;;;;4942116;29;20490;-77
2023/09/04 04:48:07;;;;;;;3.30;2.20;;;18.40;81.30;;;;;;4941614;29;20868;-78
2023/09/04 04:50:34;;;;;;;2.70;1.60;;;18.40;81.10;;;;;;4942046;29;20448;-77
2023/09/04 04:53:03;;;;;;;3.13;2.30;;;18.30;81.30;;;;;;4942289;29;20452;-78
2023/09/04 04:55:29;;;;;;;2.37;1.70;;;18.30;81.30;;;;;;4942326;29;20448;-77
2023/09/04 04:57:56;;;;;;;2.40;2.07;;;18.30;81.30;;;;;;4942381;29;20448;-77
2023/09/04 05:00:23;;;;;;;2.20;1.80;;;18.40;81.30;;;;;;4941282;29;21055;-78
2023/09/04 05:02:49;;;;;;;2.53;1.50;;;18.40;81.00;;;;;;4941385;29;20456;-78
2023/09/04 05:05:16;;;;;;;2.60;2.23;;;18.40;81.10;;;;;;4942322;29;20462;-78
2023/09/04 05:07:43;;;;;;;2.17;1.80;;;18.50;80.90;;;;;;4942001;29;20451;-78
2023/09/04 05:10:11;;;;;;;2.50;2.00;;;18.50;81.00;;;;;;4941628;29;20455;-78
2023/09/04 05:12:38;;;;;;;2.20;1.60;;;18.50;81.00;;;;;;4941231;29;20500;-78
2023/09/04 05:15:06;;;;;;;2.80;2.13;;;18.60;80.90;;;;;;4941988;29;20487;-78
2023/09/04 05:17:33;;;;;;;5.00;1.80;;;18.60;81.00;;;;;;4940958;29;20555;-78
2023/09/04 05:20:00;;;;;;;3.40;2.00;;;18.70;80.80;;;;;;4941419;29;20496;-78
2023/09/04 05:22:26;;;;;;;2.23;1.67;;;18.70;80.70;;;;;;4942683;29;20475;-78
2023/09/04 05:24:53;;;;;;;2.23;1.73;;;18.80;80.60;;;;;;4941797;29;20459;-78
2023/09/04 05:27:21;;;;;;;2.30;1.73;;;18.90;80.40;;;;;;4942635;29;20476;-78
2023/09/04 05:29:48;;;;;;;3.47;1.70;;;19.00;80.20;;;;;;4942586;29;20456;-78
2023/09/04 05:32:14;;;;;;;2.30;1.83;;;19.10;80.10;;;;;;4940241;29;20471;-79
2023/09/04 05:34:41;;;;;;;2.67;2.20;;;19.20;79.70;;;;;;4937643;29;20456;-77
2023/09/04 05:37:08;;;;;;;2.13;1.70;;;19.30;80.00;;;;;;4939025;29;20451;-78
2023/09/04 05:39:35;;;;;;;2.50;1.80;;;19.40;80.10;;;;;;4943399;29;20458;-78
2023/09/04 05:42:02;;;;;;;2.10;1.60;;;19.60;79.60;;;;;;4940795;29;20475;-79
2023/09/04 05:44:30;;;;;;;2.60;2.40;;;19.70;78.80;;;;;;4939168;29;20798;-79
2023/09/04 05:46:57;;;;;;;2.63;2.27;;;19.90;78.80;;;;;;4937983;29;20524;-78
2023/09/04 05:49:24;;;;;;;2.70;2.17;;;20.10;78.20;;;;;;4940525;29;20498;-79
2023/09/04 05:51:51;;;;;;;3.37;2.30;;;20.30;77.60;;;;;;4939882;29;20474;-79
2023/09/04 05:54:18;;;;;;;3.07;2.20;;;20.30;76.30;;;;;;4936910;29;20464;-80
2023/09/04 05:56:44;;;;;;;2.70;1.90;;;20.40;76.60;;;;;;4939521;29;20479;-80
2023/09/04 05:59:11;;;;;;;3.10;2.60;;;20.20;76.10;;;;;;4939357;29;20508;-80
2023/09/04 06:01:39;;;;;;;3.03;2.53;;;20.60;75.50;;;;;;4940543;29;20491;-81
2023/09/04 06:04:06;;;;;;;3.33;2.17;;;20.80;74.30;;;;;;4941952;29;20535;-77
2023/09/04 06:06:33;;;;;;;2.97;2.60;;;21.30;74.00;;;;;;4940748;29;20455;-80
2023/09/04 06:08:59;;;;;;;3.40;3.00;;;22.00;71.20;;;;;;4941574;29;20467;-78
2023/09/04 06:11:26;;;;;;;3.07;2.40;;;22.20;70.60;;;;;;4942195;29;20467;-79
2023/09/04 06:13:53;;;;;;;2.83;2.20;;;22.90;70.00;;;;;;4941459;29;20814;-79
2023/09/04 06:16:19;;;;;;;2.53;2.03;;;24.20;67.60;;;;;;4943822;29;20810;-79
2023/09/04 06:18:47;;;;;;;2.23;2.03;;;25.40;64.60;;;;;;4943759;29;20476;-79
2023/09/04 06:21:14;;;;;;;3.50;2.57;;;25.40;62.10;;;;;;4942799;29;20496;-78
2023/09/04 06:23:41;;;;;;;2.37;1.97;;;24.50;64.10;;;;;;4942517;29;20443;-79
2023/09/04 06:26:07;;;;;;;3.30;1.93;;;24.20;65.30;;;;;;4945334;29;20455;-78
2023/09/04 06:28:34;;;;;;;2.60;2.20;;;24.40;64.10;;;;;;4947978;29;20463;-78
2023/09/04 06:31:01;;;;;;;2.57;2.20;;;24.10;65.20;;;;;;4948644;29;20467;-79
2023/09/04 06:33:29;;;;;;;2.60;2.03;;;24.50;64.90;;;;;;4950265;29;20451;-79
2023/09/04 06:35:57;;;;;;;4.10;1.90;;;25.40;62.80;;;;;;4948469;29;20456;-78
2023/09/04 06:38:24;;;;;;;7.33;2.40;;;25.90;61.50;;;;;;4947164;29;20455;-78
2023/09/04 06:40:57;;;;;;;2.80;2.20;;;26.00;61.00;;;;;;4946465;29;20491;-79
2023/09/04 06:43:24;;;;;;;2.40;2.00;;;25.20;62.30;;;;;;4945045;29;20440;-78
2023/09/04 06:45:50;;;;;;;2.07;1.73;;;24.70;63.40;;;;;;4942801;29;20960;-78
2023/09/04 06:48:17;;;;;;;4.73;1.90;;;24.70;63.60;;;;;;4941398;29;20945;-77
2023/09/04 06:50:44;;;;;;;2.63;2.40;;;25.20;62.10;;;;;;4942823;29;20471;-78
2023/09/04 06:53:12;;;;;;;2.33;1.80;;;25.50;62.10;;;;;;4948097;29;20459;-79
2023/09/04 06:55:38;;;;;;;3.20;2.33;;;25.70;62.20;;;;;;4947467;29;20459;-75
2023/09/04 06:58:05;;;;;;;2.40;2.07;;;26.30;60.70;;;;;;4942012;29;20515;-78
2023/09/04 07:00:32;;;;;;;2.27;1.93;;;25.80;61.10;;;;;;4941283;29;20502;-77
2023/09/04 07:02:58;;;;;;;2.20;2.00;;;25.50;62.40;;;;;;4939619;29;20436;-76
2023/09/04 07:05:25;;;;;;;2.20;2.00;;;25.40;62.20;;;;;;4939675;29;20471;-77
2023/09/04 07:07:52;;;;;;;2.10;1.67;;;24.90;63.10;;;;;;4941273;29;20448;-77
2023/09/04 07:10:20;;;;;;;2.70;2.30;;;24.40;64.00;;;;;;4940819;29;20451;-77
2023/09/04 07:12:46;;;;;;;2.87;2.57;;;23.90;64.60;;;;;;4940729;29;20452;-77
2023/09/04 07:15:13;;;;;;;2.07;1.73;;;23.50;66.30;;;;;;4941853;29;20452;-78
2023/09/04 07:17:40;;;;;;;2.67;2.27;;;23.40;66.10;;;;;;4943844;29;20458;-79
2023/09/04 07:20:10;;;;;;;4.00;2.20;;;22.90;67.10;;;;;;4939773;29;20446;-77
2023/09/04 07:22:37;;;;;;;2.63;2.30;;;22.70;68.00;;;;;;4939178;29;20463;-77
2023/09/04 07:25:05;;;;;;;2.90;2.47;;;22.60;68.20;;;;;;4939102;29;20448;-77
2023/09/04 07:27:33;;;;;;;2.97;2.50;;;22.50;70.10;;;;;;4939496;29;20456;-78
2023/09/04 07:30:00;;;;;;;2.73;2.40;;;22.50;70.00;;;;;;4939647;29;20443;-78
2023/09/04 07:32:27;;;;;;;3.10;2.13;;;22.30;69.80;;;;;;4940908;29;20468;-77
2023/09/04 07:34:56;;;;;;;3.50;2.30;;;22.60;70.10;;;;;;4940855;29;20979;-77
2023/09/04 07:37:22;;;;;;;3.13;1.87;;;22.60;69.80;;;;;;4941904;29;20467;-77
2023/09/04 07:39:49;;;;;;;2.10;1.63;;;22.40;68.90;;;;;;4939983;29;20447;-77
2023/09/04 07:42:16;;;;;;;3.03;2.00;;;22.40;70.30;;;;;;4940181;29;20491;-76
2023/09/04 07:44:44;;;;;;;3.27;2.20;;;22.30;69.50;;;;;;4942607;29;20475;-77
2023/09/04 07:47:10;;;;;;;2.50;2.20;;;22.40;70.00;;;;;;4942109;29;20456;-77
2023/09/04 07:49:37;;;;;;;2.47;2.03;;;22.60;68.90;;;;;;4939199;29;20511;-78
2023/09/04 07:52:04;;;;;;;2.83;2.20;;;22.70;69.90;;;;;;4937690;29;21036;-76
2023/09/04 07:54:31;;;;;;;2.30;1.93;;;22.80;68.40;;;;;;4938846;29;20500;-77
2023/09/04 07:56:59;;;;;;;2.80;2.10;;;22.70;69.20;;;;;;4940188;29;20455;-77
2023/09/04 07:59:25;;;;;;;2.20;1.83;;;22.80;69.40;;;;;;4939529;29;20452;-77
2023/09/04 08:01:53;;;;;;;2.47;2.13;;;22.80;68.20;;;;;;4941131;29;20550;-77
2023/09/04 08:04:21;;;;;;;2.80;2.07;;;22.80;68.80;;;;;;4941051;29;20823;-77
2023/09/04 08:06:48;;;;;;;2.97;2.00;;;22.90;68.80;;;;;;4940073;29;20451;-77
2023/09/04 08:09:15;;;;;;;3.80;2.17;;;23.00;67.20;;;;;;4940336;29;20797;-76
2023/09/04 08:11:42;;;;;;;2.20;1.83;;;23.00;67.90;;;;;;4942490;29;20502;-77
2023/09/04 08:14:09;;;;;;;2.13;1.90;;;23.10;67.00;;;;;;4944669;29;20471;-78
2023/09/04 08:16:36;;;;;;;2.77;2.20;;;23.20;67.70;;;;;;4941013;29;20455;-77
2023/09/04 08:19:04;;;;;;;2.40;1.57;;;23.40;67.60;;;;;;4941812;29;20456;-78
2023/09/04 08:21:31;;;;;;;2.40;1.90;;;23.40;66.50;;;;;;4939938;29;20546;-78
2023/09/04 08:23:57;;;;;;;2.50;2.10;;;23.10;67.40;;;;;;4937716;29;20452;-78
2023/09/04 08:26:24;;;;;;;3.07;1.90;;;23.00;69.20;;;;;;4937165;29;20451;-77
2023/09/04 08:28:51;;;;;;;2.43;1.63;;;23.10;67.90;;;;;;4938667;29;20456;-77
2023/09/04 08:31:18;;;;;;;2.57;2.03;;;23.20;69.10;;;;;;4940725;29;20468;-77
2023/09/04 08:33:44;;;;;;;2.50;2.10;;;23.60;68.00;;;;;;4940111;29;20455;-77
2023/09/04 08:36:13;;;;;;;2.23;1.83;;;23.50;66.30;;;;;;4937744;29;20456;-77
2023/09/04 08:38:39;;;;;;;2.93;1.80;;;23.40;66.80;;;;;;4937247;29;20455;-76
2023/09/04 08:41:09;;;;;;;2.50;1.93;;;23.50;66.60;;;;;;4938412;29;20496;-78
2023/09/04 08:43:37;;;;;;;2.37;1.90;;;23.50;67.00;;;;;;4937919;29;20499;-78
2023/09/04 08:46:06;;;;;;;3.43;2.10;;;23.30;67.20;;;;;;4936583;29;20470;-76
2023/09/04 08:48:39;;;;;;;2.37;2.00;;;23.10;66.80;;;;;;4936131;29;20519;-77
2023/09/04 08:51:07;;;;;;;2.63;1.90;;;23.00;67.80;;;;;;4936628;29;20531;-77
2023/09/04 08:53:36;;;;;;;2.50;1.80;;;23.10;68.10;;;;;;4936533;29;20511;-77
2023/09/04 08:56:03;;;;;;;2.73;1.80;;;23.00;68.40;;;;;;4936257;29;20448;-77
2023/09/04 08:58:30;;;;;;;2.30;1.57;;;22.90;68.80;;;;;;4936800;29;20448;-77
2023/09/04 09:00:57;;;;;;;2.13;1.83;;;23.20;69.00;;;;;;4936631;29;20479;-77
2023/09/04 09:03:24;;;;;;;2.13;1.57;;;23.30;67.10;;;;;;4937106;29;20432;-77
2023/09/04 09:05:55;;;;;;;2.47;2.03;;;23.40;68.00;;;;;;4937327;29;20452;-77
2023/09/04 09:08:23;;;;;;;2.70;1.90;;;23.40;66.50;;;;;;4936836;29;20455;-77
2023/09/04 09:10:53;;;;;;;3.40;1.93;;;23.30;68.00;;;;;;4937080;29;20499;-77
2023/09/04 09:13:20;;;;;;;2.00;1.60;;;23.20;68.10;;;;;;4937813;29;20452;-77
2023/09/04 09:15:47;;;;;;;2.30;1.63;;;23.30;67.80;;;;;;4936439;29;20459;-77
2023/09/04 09:18:34;;;;;;;2.47;1.50;;;23.40;67.50;;;;;;4936716;29;20452;-75
2023/09/04 09:21:01;;;;;;;2.30;1.70;;;23.50;68.20;;;;;;4935753;29;20593;-76
2023/09/04 09:23:28;;;;;;;2.77;1.80;;;23.50;67.50;;;;;;4935792;29;20447;-76
2023/09/04 09:25:56;;;;;;;2.50;1.97;;;23.60;68.60;;;;;;4935791;29;20447;-76
2023/09/04 09:28:23;;;;;;;2.27;1.80;;;23.70;68.70;;;;;;4935956;29;20443;-76
2023/09/04 09:30:51;;;;;;;3.10;1.80;;;23.80;66.90;;;;;;4935816;29;20471;-76
2023/09/04 09:33:21;;;;;;;2.20;1.50;;;23.90;67.00;;;;;;4936127;29;20507;-76
2023/09/04 09:35:48;;;;;;;2.90;1.90;;;23.80;66.00;;;;;;4935895;29;20434;-76
2023/09/04 09:38:15;;;;;;;2.30;1.60;;;23.90;66.90;;;;;;4939731;29;20448;-76
2023/09/04 09:40:41;;;;;;;2.40;1.70;;;24.10;66.50;;;;;;4939671;29;20519;-76
2023/09/04 09:43:09;;;;;;;2.07;1.57;;;24.20;66.30;;;;;;4939427;29;20492;-76
2023/09/04 09:45:37;;;;;;;2.47;1.83;;;24.30;65.30;;;;;;4939532;29;20452;-77
2023/09/04 09:48:07;;;;;;;2.93;1.43;;;24.20;64.30;;;;;;4939424;29;20444;-77
2023/09/04 09:50:34;;;;;;;3.10;1.83;;;24.10;64.90;;;;;;4939551;29;20863;-76
2023/09/04 09:53:02;;;;;;;2.20;1.30;;;24.20;66.10;;;;;;4939717;29;20452;-77
2023/09/04 09:55:31;;;;;;;2.47;1.60;;;24.10;64.70;;;;;;4939585;29;20451;-77
2023/09/04 09:57:59;;;;;;;3.57;1.60;;;24.20;64.50;;;;;;4940010;29;20456;-77
2023/09/04 10:00:28;;;;;;;3.53;1.90;;;24.10;64.80;;;;;;4939499;29;20448;-76
2023/09/04 10:02:55;;;;;;;3.57;2.10;;;24.20;63.70;;;;;;4939300;29;20471;-77
2023/09/04 10:05:24;;;;;;;2.73;1.80;;;24.20;64.20;;;;;;4939520;29;20447;-76
2023/09/04 10:07:56;;;;;;;2.20;1.60;;;24.10;62.50;;;;;;4939047;29;20866;-77
2023/09/04 10:10:24;;;;;;;2.30;1.73;;;24.10;64.50;;;;;;4939362;29;20961;-77
2023/09/04 10:12:56;;;;;;;2.03;1.33;;;24.40;63.80;;;;;;4938931;29;20519;-77
2023/09/04 10:15:26;;;;;;;2.10;1.70;;;24.60;63.10;;;;;;5006241;23;20539;-72
2023/09/04 10:18:02;;;;;;;2.10;1.70;;;24.80;62.20;;;;;;4920079;29;20469;-74
2023/09/04 10:20:29;;;;;;;2.30;1.70;;;24.70;62.10;;;;;;4919876;29;20420;-72
2023/09/04 10:23:03;;;;;;;2.20;1.50;;;24.70;63.60;;;;;;4919760;29;20549;-73
2023/09/04 10:25:37;;;;;;;1.90;1.37;;;24.80;61.50;;;;;;4919315;29;20952;-72
2023/09/04 10:28:06;;;;;;;2.97;1.70;;;25.00;61.40;;;;;;4919720;29;20484;-72
2023/09/04 10:30:37;;;;;;;1.90;1.60;;;25.00;60.60;;;;;;4919554;29;20449;-72
2023/09/04 10:33:06;;;;;;;1.87;1.43;;;25.10;60.60;;;;;;4919729;29;20467;-72
2023/09/04 10:35:34;;;;;;;2.40;1.37;;;25.10;60.90;;;;;;4919503;29;20476;-72
2023/09/04 10:38:01;;;;;;;2.20;1.43;;;25.20;62.30;;;;;;4919339;29;20512;-72
2023/09/04 10:40:29;;;;;;;1.70;1.13;;;25.40;60.90;;;;;;4919629;29;20453;-72
2023/09/04 10:43:03;;;;;;;2.30;1.23;;;25.50;59.70;;;;;;4919318;29;20579;-72
2023/09/04 10:45:30;;;;;;;2.17;1.37;;;25.60;61.30;;;;;;4919228;29;20552;-72
2023/09/04 10:47:57;;;;;;;2.00;1.30;;;25.70;59.10;;;;;;4919235;29;20455;-72
2023/09/04 10:50:29;;;;;;;1.90;1.43;;;25.60;58.70;;;;;;4919406;29;20536;-72
2023/09/04 10:52:56;;;;;;;2.20;1.60;;;25.60;58.70;;;;;;4919275;29;20445;-72
2023/09/04 10:55:24;;;;;;;2.50;1.50;;;25.60;59.00;;;;;;4919294;29;20465;-73
2023/09/04 10:57:55;;;;;;;2.00;1.47;;;25.70;58.90;;;;;;4919288;29;20449;-72
2023/09/04 11:00:30;;;;;;;2.37;1.77;;;25.70;57.90;;;;;;4918993;29;20532;-72
2023/09/04 11:02:59;;;;;;;1.90;1.37;;;25.70;57.30;;;;;;4918894;29;20492;-72
2023/09/04 11:05:25;;;;;;;1.90;1.30;;;25.70;57.20;;;;;;4918870;29;20472;-72
2023/09/04 11:07:53;;;;;;;2.00;1.40;;;25.80;58.30;;;;;;4918943;29;20453;-72
2023/09/04 11:10:37;;;;;;;1.77;1.20;;;26.00;56.20;;;;;;4918824;29;20476;-71
2023/09/04 11:13:04;;;;;;;2.03;1.33;;;26.10;56.80;;;;;;4918854;29;20444;-72
2023/09/04 11:15:34;;;;;;;2.37;1.70;;;26.20;55.70;;;;;;4918684;29;20488;-72
2023/09/04 11:18:02;;;;;;;1.80;1.27;;;26.30;54.30;;;;;;4918818;29;20453;-73
2023/09/04 11:20:30;;;;;;;2.30;1.50;;;26.30;54.70;;;;;;4918845;29;20493;-72
2023/09/04 11:22:58;;;;;;;2.03;1.30;;;26.40;54.60;;;;;;4918587;29;20491;-72
2023/09/04 11:25:25;;;;;;;2.57;1.67;;;26.70;54.10;;;;;;4918405;29;20500;-72
2023/09/04 11:27:52;;;;;;;1.90;1.13;;;26.80;52.20;;;;;;4918178;29;20955;-72
2023/09/04 11:30:19;;;;;;;2.00;1.30;;;26.80;52.20;;;;;;4918424;29;20453;-72
2023/09/04 11:32:46;;;;;;;2.53;1.83;;;26.80;52.20;;;;;;4918398;29;20460;-72
2023/09/04 11:35:13;;;;;;;2.10;1.63;;;26.90;52.20;;;;;;4918711;29;20473;-72
2023/09/04 11:37:41;;;;;;;1.80;1.53;;;27.00;51.80;;;;;;4918192;29;20950;-72
2023/09/04 11:40:10;;;;;;;1.97;1.33;;;27.10;51.60;;;;;;4918192;29;20488;-73
2023/09/04 11:42:37;;;;;;;1.80;1.30;;;27.10;51.40;;;;;;4918144;29;20888;-72
2023/09/04 11:45:05;;;;;;;2.33;1.60;;;27.00;51.90;;;;;;4918081;29;20562;-72
2023/09/04 11:47:31;;;;;;;1.63;1.17;;;27.10;52.70;;;;;;4918079;29;20504;-72
2023/09/04 11:49:58;;;;;;;1.80;1.20;;;27.30;52.20;;;;;;4918102;29;20891;-72
2023/09/04 11:52:27;;;;;;;2.33;1.30;;;27.10;51.60;;;;;;4918027;29;20452;-72
2023/09/04 11:54:54;;;;;;;1.90;1.20;;;27.20;52.50;;;;;;4917561;29;20459;-73
2023/09/04 11:57:23;;;;;;;1.90;1.40;;;27.30;50.40;;;;;;4917903;29;20449;-73
2023/09/04 11:59:49;;;;;;;2.03;1.40;;;27.10;52.40;;;;;;4917180;29;20440;-72
2023/09/04 12:02:15;;;;;;;2.20;1.63;;;27.20;52.80;;;;;;4917731;29;20496;-72
2023/09/04 12:04:45;;;;;;;1.70;1.07;;;27.30;52.00;;;;;;4917766;29;20452;-72
2023/09/04 12:07:13;;;;;;;1.90;1.30;;;27.40;51.00;;;;;;4917590;29;20898;-72
2023/09/04 12:09:41;;;;;;;2.07;1.47;;;27.50;50.60;;;;;;4917791;29;20472;-72
2023/09/04 12:12:08;;;;;;;2.03;1.20;;;27.70;50.80;;;;;;4917627;29;20507;-72
2023/09/04 12:14:44;;;;;;;2.00;1.50;;;27.90;50.30;;;;;;4918140;29;20449;-72
2023/09/04 12:17:11;;;;;;;2.10;1.60;;;28.10;49.80;;;;;;4917568;29;20519;-72
2023/09/04 12:19:38;;;;;;;2.17;1.10;;;28.00;48.00;;;;;;4917562;29;20488;-72
2023/09/04 12:22:12;;;;;;;1.87;1.20;;;27.90;48.00;;;;;;4917392;29;20491;-71
2023/09/04 12:24:39;;;;;;;2.67;1.20;;;27.90;47.60;;;;;;4917887;29;20504;-73
2023/09/04 12:27:06;;;;;;;1.90;1.30;;;28.00;47.70;;;;;;4917419;29;20503;-74
2023/09/04 12:29:36;;;;;;;2.40;1.27;;;28.10;47.40;;;;;;4917161;29;20951;-73
2023/09/04 12:32:03;;;;;;;2.00;1.33;;;28.10;48.60;;;;;;4917378;29;20535;-72
2023/09/04 12:34:31;;;;;;;2.00;1.30;;;28.10;49.20;;;;;;4917018;29;20531;-73
2023/09/04 12:36:59;;;;;;;1.80;1.40;;;27.90;47.60;;;;;;4917178;29;20906;-74
2023/09/04 12:39:26;;;;;;;2.70;1.40;;;27.80;48.90;;;;;;4917357;29;20456;-74
2023/09/04 12:41:56;;;;;;;1.83;1.20;;;27.80;48.90;;;;;;4917188;29;20464;-74
2023/09/04 12:44:22;;;;;;;2.00;1.47;;;27.90;49.70;;;;;;4917255;29;20449;-73
2023/09/04 12:46:51;;;;;;;1.73;0.97;;;28.00;48.40;;;;;;4916762;29;20476;-74
2023/09/04 12:49:17;;;;;;;2.37;1.47;;;28.10;47.80;;;;;;4917030;29;20452;-73
2023/09/04 12:51:44;;;;;;;1.90;1.20;;;28.40;47.30;;;;;;4917061;29;20464;-73
2023/09/04 12:54:11;;;;;;;1.83;1.30;;;28.20;46.70;;;;;;4917033;29;20449;-74
2023/09/04 12:56:38;;;;;;;1.70;1.10;;;28.30;48.50;;;;;;4916925;29;20469;-74
2023/09/04 12:59:04;;;;;;;2.23;1.00;;;28.40;46.70;;;;;;4916982;29;20449;-74
2023/09/04 13:01:31;;;;;;;1.80;1.13;;;28.50;45.90;;;;;;4916979;29;20444;-73
2023/09/04 13:03:59;;;;;;;2.00;1.27;;;28.30;45.70;;;;;;4916903;29;20484;-74
2023/09/04 13:06:30;;;;;;;1.87;1.20;;;28.30;46.40;;;;;;4916557;29;20461;-74
2023/09/04 13:08:56;;;;;;;2.17;1.27;;;28.30;45.90;;;;;;4916990;29;20864;-73
2023/09/04 13:11:23;;;;;;;2.73;1.30;;;28.40;47.50;;;;;;4917254;29;20955;-73
2023/09/04 13:13:50;;;;;;;2.30;1.77;;;28.60;47.20;;;;;;4920886;29;20543;-73
2023/09/04 13:16:16;;;;;;;2.67;1.23;;;28.80;47.00;;;;;;4920586;29;20484;-72
2023/09/04 13:18:44;;;;;;;1.70;1.13;;;29.20;46.70;;;;;;4920851;29;20444;-72
2023/09/04 13:21:12;;;;;;;2.30;1.40;;;29.30;45.20;;;;;;4921384;29;20444;-72
2023/09/04 13:23:39;;;;;;;2.93;1.13;;;29.40;45.40;;;;;;4920803;29;20488;-73
2023/09/04 13:26:06;;;;;;;14.63;2.23;;;29.60;45.50;;;;;;4920805;29;20468;-73
2023/09/04 13:28:32;;;;;;;2.20;1.40;;;29.70;44.80;;;;;;4920661;29;20456;-72
2023/09/04 13:31:00;;;;;;;1.70;1.27;;;29.60;45.30;;;;;;4920830;29;20525;-73
2023/09/04 13:33:27;;;;;;;1.77;1.37;;;29.70;44.80;;;;;;4920295;29;20946;-72
2023/09/04 13:35:53;;;;;;;2.07;1.47;;;29.80;45.90;;;;;;4920740;29;20474;-73
2023/09/04 13:38:21;;;;;;;1.90;1.30;;;29.80;44.70;;;;;;4920565;29;20456;-72
2023/09/04 13:40:48;;;;;;;1.90;1.50;;;29.90;45.10;;;;;;4920216;29;20464;-72
2023/09/04 13:43:14;;;;;;;1.67;1.07;;;29.80;44.90;;;;;;4920472;29;20536;-72
2023/09/04 13:45:41;;;;;;;2.13;1.33;;;29.70;45.40;;;;;;4920305;29;20464;-72
2023/09/04 13:48:08;;;;;;;3.10;1.50;;;29.70;45.20;;;;;;4920437;29;20444;-71
2023/09/04 13:50:34;;;;;;;2.70;1.50;;;29.80;45.90;;;;;;4920306;29;20471;-71
2023/09/04 13:53:01;;;;;;;1.73;1.30;;;30.10;45.80;;;;;;4920214;29;20452;-72
2023/09/04 13:55:29;;;;;;;2.00;1.60;;;30.10;44.90;;;;;;4920185;29;20482;-71
2023/09/04 13:57:56;;;;;;;2.63;1.33;;;30.10;45.30;;;;;;4920213;29;20496;-72
2023/09/04 14:00:23;;;;;;;1.93;1.50;;;30.00;44.60;;;;;;4920263;29;20455;-71
2023/09/04 14:02:49;;;;;;;2.30;1.60;;;30.20;46.00;;;;;;4920008;29;20480;-71
2023/09/04 14:05:16;;;;;;;2.10;1.50;;;30.10;44.90;;;;;;4920210;29;20468;-71
2023/09/04 14:07:43;;;;;;;2.07;1.20;;;30.10;44.80;;;;;;4920312;29;20547;-72
2023/09/04 14:10:10;;;;;;;1.87;1.50;;;30.30;45.90;;;;;;4920155;29;20504;-72
2023/09/04 14:12:38;;;;;;;2.50;1.20;;;30.50;45.20;;;;;;4920522;29;20831;-71
2023/09/04 14:15:06;;;;;;;2.67;1.60;;;30.60;44.90;;;;;;4920836;29;20480;-72
2023/09/04 14:17:32;;;;;;;2.63;1.60;;;30.60;45.10;;;;;;4921003;29;20499;-71
2023/09/04 14:19:59;;;;;;;2.23;1.30;;;30.80;44.10;;;;;;4921664;29;20861;-71
2023/09/04 14:22:26;;;;;;;1.80;1.23;;;30.70;44.30;;;;;;4919855;29;20965;-71
2023/09/04 14:24:53;;;;;;;1.90;1.60;;;31.00;44.30;;;;;;4920582;29;20453;-72
2023/09/04 14:27:20;;;;;;;2.33;1.80;;;31.40;44.40;;;;;;4919574;29;21010;-71
2023/09/04 14:29:48;;;;;;;1.80;1.27;;;31.70;43.70;;;;;;4919423;29;20457;-72
2023/09/04 14:32:14;;;;;;;3.00;1.60;;;31.70;42.20;;;;;;4919685;29;20504;-71
2023/09/04 14:34:41;;;;;;;2.00;1.50;;;31.80;42.80;;;;;;4919349;29;20951;-72
2023/09/04 14:37:08;;;;;;;2.53;1.80;;;32.20;42.00;;;;;;4919666;29;20662;-71
2023/09/04 14:39:34;;;;;;;1.87;1.43;;;32.70;41.40;;;;;;4919229;29;20939;-72
2023/09/04 14:42:01;;;;;;;3.10;1.63;;;33.40;41.60;;;;;;4919136;29;20995;-72
2023/09/04 14:44:28;;;;;;;2.27;1.60;;;34.10;39.60;;;;;;4919456;29;20491;-72
2023/09/04 14:46:56;;;;;;;1.90;1.30;;;35.00;38.50;;;;;;4919459;29;20528;-71
2023/09/04 14:49:23;;;;;;;1.90;1.30;;;36.00;37.20;;;;;;4919369;29;20500;-71
2023/09/04 14:51:50;;;;;;;2.40;1.57;;;36.40;36.50;;;;;;4919414;29;20903;-73
2023/09/04 14:54:18;;;;;;;1.63;1.20;;;37.00;35.70;;;;;;4919243;29;20452;-72
2023/09/04 14:56:45;;;;;;;1.50;1.20;;;37.60;35.80;;;;;;4919123;29;20479;-71
2023/09/04 14:59:12;;;;;;;1.93;1.53;;;37.00;35.10;;;;;;4919255;29;20864;-72
2023/09/04 15:01:39;;;;;;;2.20;1.53;;;36.40;36.40;;;;;;4919117;29;20452;-72
2023/09/04 15:04:07;;;;;;;1.50;1.10;;;36.80;35.90;;;;;;4918886;29;20853;-72
2023/09/04 15:06:34;;;;;;;1.80;1.20;;;37.30;34.50;;;;;;4919120;29;20468;-72
2023/09/04 15:09:00;;;;;;;1.90;1.40;;;37.50;34.70;;;;;;4919060;29;20451;-72
2023/09/04 15:11:27;;;;;;;1.40;1.10;;;37.60;34.70;;;;;;4918600;29;20441;-71
2023/09/04 15:13:54;;;;;;;1.73;1.40;;;38.10;34.90;;;;;;4918867;29;20503;-72
2023/09/04 15:16:22;;;;;;;1.80;1.50;;;38.50;33.80;;;;;;4918433;29;20476;-72
2023/09/04 15:18:48;;;;;;;1.80;1.40;;;38.40;33.50;;;;;;4918698;29;20455;-71
2023/09/04 15:21:17;;;;;;;1.67;1.27;;;38.10;33.70;;;;;;4918735;29;20203;-72
2023/09/04 15:23:43;;;;;;;1.70;1.30;;;37.60;33.90;;;;;;4918577;29;20524;-72
2023/09/04 15:26:10;;;;;;;2.40;1.27;;;37.50;34.60;;;;;;4918487;29;20511;-72
2023/09/04 15:28:37;;;;;;;1.90;1.50;;;37.20;35.10;;;;;;4918485;29;20519;-71
2023/09/04 15:31:03;;;;;;;2.60;1.40;;;36.70;35.10;;;;;;4918571;29;20448;-72
2023/09/04 15:33:30;;;;;;;2.43;1.30;;;35.50;36.20;;;;;;4918116;29;20470;-72
2023/09/04 15:35:59;;;;;;;1.63;1.27;;;33.90;37.90;;;;;;4917822;29;20472;-71
2023/09/04 15:38:28;;;;;;;1.90;1.23;;;32.80;39.40;;;;;;4918263;29;20461;-71
2023/09/04 15:40:55;;;;;;;1.97;1.43;;;31.60;40.70;;;;;;4918264;29;20455;-71
2023/09/04 15:43:23;;;;;;;2.20;2.00;;;30.70;42.40;;;;;;4918112;29;20514;-71
2023/09/04 15:45:51;;;;;;;2.20;1.53;;;30.00;43.70;;;;;;4918081;29;20480;-71
2023/09/04 15:48:19;;;;;;;4.00;1.60;;;29.60;43.80;;;;;;4918029;29;20484;-70
2023/09/04 15:50:46;;;;;;;2.20;1.50;;;29.10;43.80;;;;;;4918894;29;20452;-70
2023/09/04 15:53:12;;;;;;;2.20;1.30;;;28.70;45.40;;;;;;4918003;29;20509;-71
2023/09/04 15:55:40;;;;;;;2.63;1.57;;;28.40;44.40;;;;;;4917903;29;20477;-71
2023/09/04 15:58:07;;;;;;;3.10;1.30;;;28.20;45.90;;;;;;4917935;29;20452;-71
2023/09/04 16:00:34;;;;;;;1.70;1.10;;;28.10;45.90;;;;;;4917845;29;20457;-70
2023/09/04 16:03:00;;;;;;;2.40;1.60;;;27.90;46.40;;;;;;4917694;29;20456;-71
2023/09/04 16:05:27;;;;;;;2.93;1.67;;;27.90;46.60;;;;;;4917660;29;20528;-71
2023/09/04 16:07:54;;;;;;;2.37;1.40;;;27.80;46.80;;;;;;4917903;29;20477;-70
2023/09/04 16:10:21;;;;;;;2.90;1.80;;;27.80;47.90;;;;;;4917483;29;21017;-71
2023/09/04 16:12:49;;;;;;;1.77;1.23;;;27.70;46.90;;;;;;4917631;29;20449;-71
2023/09/04 16:15:15;;;;;;;3.40;1.37;;;27.60;47.20;;;;;;4941603;23;20488;-76
2023/09/04 16:17:42;;;;;;;3.10;1.40;;;27.50;47.00;;;;;;4918162;29;20965;-75
2023/09/04 16:20:10;;;;;;;2.17;1.43;;;27.30;47.00;;;;;;4918171;29;20445;-76
2023/09/04 16:22:36;;;;;;;2.20;1.37;;;27.30;47.20;;;;;;4918171;29;20453;-75
2023/09/04 16:25:04;;;;;;;1.80;1.20;;;27.30;47.40;;;;;;4917735;29;20540;-76
2023/09/04 16:27:30;;;;;;;1.90;1.47;;;27.30;47.40;;;;;;4917708;29;20476;-77
2023/09/04 16:29:58;;;;;;;2.13;1.50;;;27.20;47.30;;;;;;4917735;29;20456;-76
2023/09/04 16:32:25;;;;;;;1.90;1.47;;;27.20;47.60;;;;;;4918086;29;20448;-78
2023/09/04 16:34:52;;;;;;;2.30;1.60;;;27.20;46.90;;;;;;4917440;29;20828;-77
2023/09/04 16:40:22;;;;;;;2.33;1.40;;;27.10;47.60;;;;;;4915955;29;20492;-77
2023/09/04 16:42:50;;;;;;;2.30;1.60;;;27.10;47.80;;;;;;4917127;29;20533;-77
2023/09/04 16:45:18;;;;;;;2.00;1.57;;;27.00;47.70;;;;;;4917011;29;20492;-77
2023/09/04 16:47:45;;;;;;;3.23;1.73;;;27.00;47.70;;;;;;4917305;29;20559;-77
2023/09/04 16:50:11;;;;;;;2.20;1.57;;;27.00;48.10;;;;;;4917223;29;20500;-77
2023/09/04 16:52:38;;;;;;;2.27;1.70;;;27.00;48.40;;;;;;4917499;29;20451;-77